Time;durP1;ratioP1;P1;durP2;ratioP2;P2;SDS_P1;SDS_P2;PMS_P1;PMS_P2;Temp;Humidity;BMP_temperature;BMP_pressure;BME280_temperature;BME280_humidity;BME280_pressure;Samples;Min_cycle;Max_cycle;Signal;HPM_P1;HPM_P2
2022/09/10 00:01:16;;;;;;;;;;;;;;;16.97;67.98;100437.52;1707563;81;26658;-60
2022/09/10 00:03:42;;;;;;;;;;;;;;;16.91;68.24;100440.67;1714339;82;26420;-60
2022/09/10 00:06:08;;;;;;;;;;;;;;;16.87;68.32;100445.44;1714690;82;26018;-60
2022/09/10 00:08:35;;;;;;;;;;;;;;;16.84;68.40;100442.95;1700607;82;25706;-60
2022/09/10 00:11:06;;;;;;;;;;;;;;;16.83;68.52;100441.22;1708465;82;25785;-60
2022/09/10 00:13:32;;;;;;;;;;;;;;;16.81;68.57;100452.65;1680570;83;26532;-60
2022/09/10 00:16:01;;;;;;;;;;;;;;;16.80;68.60;100457.69;1708611;82;25563;-60
2022/09/10 00:18:26;;;;;;;;;;;;;;;16.78;68.64;100456.93;1702805;82;26183;-60
2022/09/10 00:20:55;;;;;;;;;;;;;;;16.74;68.86;100460.83;1708139;82;25789;-60
2022/09/10 00:23:24;;;;;;;;;;;;;;;16.71;68.87;100461.05;1707801;82;28366;-60
2022/09/10 00:25:52;;;;;;;;;;;;;;;16.71;69.06;100461.05;1707905;82;26874;-60
2022/09/10 00:28:19;;;;;;;;;;;;;;;16.71;69.11;100453.42;1706308;82;25843;-61
2022/09/10 00:30:47;;;;;;;;;;;;;;;16.69;69.10;100464.36;1711471;82;25844;-60
2022/09/10 00:33:15;;;;;;;;;;;;;;;16.67;69.17;100459.55;1705795;82;41109;-60
2022/09/10 00:35:41;;;;;;;;;;;;;;;16.65;69.26;100460.14;1711243;82;27417;-61
2022/09/10 00:38:08;;;;;;;;;;;;;;;16.67;69.49;100450.56;1710355;82;26387;-61
2022/09/10 00:40:35;;;;;;;;;;;;;;;16.69;69.45;100446.77;1708808;82;25762;-61
2022/09/10 00:43:00;;;;;;;;;;;;;;;16.69;69.36;100445.90;1704336;82;25841;-60
2022/09/10 00:45:32;;;;;;;;;;;;;;;16.68;69.42;100455.00;1714955;82;25770;-60
2022/09/10 00:48:01;;;;;;;;;;;;;;;16.63;69.51;100452.59;1711133;82;27399;-60
2022/09/10 00:50:38;;;;;;;;;;;;;;;16.66;69.63;100443.41;1707335;82;26521;-60
2022/09/10 00:53:07;;;;;;;;;;;;;;;16.67;69.64;100446.02;1708105;82;25859;-59
2022/09/10 00:55:35;;;;;;;;;;;;;;;16.67;69.68;100446.50;1709170;82;25962;-59
2022/09/10 00:58:03;;;;;;;;;;;;;;;16.67;69.63;100454.62;1706650;82;25963;-59
2022/09/10 01:00:30;;;;;;;;;;;;;;;16.61;69.47;100451.83;1708605;81;28132;-60
2022/09/10 01:02:58;;;;;;;;;;;;;;;16.57;69.45;100446.26;1734991;81;26010;-60
2022/09/10 01:05:25;;;;;;;;;;;;;;;16.53;69.64;100449.67;1735982;81;25799;-60
2022/09/10 01:07:51;;;;;;;;;;;;;;;16.51;69.61;100450.27;1728154;81;26188;-59
2022/09/10 01:10:25;;;;;;;;;;;;;;;16.46;69.64;100449.73;1737935;81;25782;-59
2022/09/10 01:12:56;;;;;;;;;;;;;;;16.47;69.80;100447.40;1743102;81;25816;-59
2022/09/10 01:15:44;;;;;;;;;;;;;;;16.45;69.82;100452.05;1735285;81;25777;-59
2022/09/10 01:18:32;;;;;;;;;;;;;;;16.42;69.72;100445.99;1679693;84;25887;-58
2022/09/10 01:21:07;;;;;;;;;;;;;;;16.37;69.88;100449.51;1694996;81;27005;-58
2022/09/10 01:23:59;;;;;;;;;;;;;;;16.36;70.00;100445.94;1687987;81;25666;-59
2022/09/10 01:26:47;;;;;;;;;;;;;;;16.34;69.87;100450.59;1688115;82;27311;-60
2022/09/10 01:29:38;;;;;;;;;;;;;;;16.29;69.91;100445.98;1711385;82;25828;-60
2022/09/10 01:32:11;;;;;;;;;;;;;;;16.25;70.08;100443.13;1653167;81;25847;-59
2022/09/10 01:34:43;;;;;;;;;;;;;;;16.24;70.15;100447.66;1692323;83;26492;-59
2022/09/10 01:37:13;;;;;;;;;;;;;;;16.23;70.52;100454.53;1684482;83;25936;-59
2022/09/10 01:39:39;;;;;;;;;;;;;;;16.15;70.28;100451.02;1691825;82;27329;-59
2022/09/10 01:42:05;;;;;;;;;;;;;;;16.10;70.31;100456.36;1738026;81;25805;-59
2022/09/10 01:44:46;;;;;;;;;;;;;;;16.04;70.48;100446.83;1740227;81;25758;-60
2022/09/10 01:47:50;;;;;;;;;;;;;;;16.00;70.76;100453.91;1737958;81;26437;-60
2022/09/10 01:50:46;;;;;;;;;;;;;;;15.97;70.73;100454.98;1732319;81;25830;-60
2022/09/10 01:53:41;;;;;;;;;;;;;;;15.90;70.85;100461.78;1731846;81;27019;-60
2022/09/10 01:56:20;;;;;;;;;;;;;;;15.83;70.99;100455.92;1739028;81;25820;-60
2022/09/10 01:58:46;;;;;;;;;;;;;;;15.75;71.03;100457.42;1733690;81;27053;-59
2022/09/10 02:01:27;;;;;;;;;;;;;;;15.70;71.29;100456.86;1741618;81;25991;-60
2022/09/10 02:03:56;;;;;;;;;;;;;;;15.65;71.44;100457.66;1737937;81;26033;-60
2022/09/10 02:06:27;;;;;;;;;;;;;;;15.61;71.35;100457.48;1734839;81;27373;-60
2022/09/10 02:08:53;;;;;;;;;;;;;;;15.50;71.54;100459.06;1734415;81;25815;-60
2022/09/10 02:11:20;;;;;;;;;;;;;;;15.47;71.66;100461.97;1737224;81;25878;-59
2022/09/10 02:13:46;;;;;;;;;;;;;;;15.44;71.76;100457.26;1739396;81;25780;-60
2022/09/10 02:16:15;;;;;;;;;;;;;;;15.39;71.83;100460.75;1715775;82;26464;-60
2022/09/10 02:18:41;;;;;;;;;;;;;;;15.38;72.00;100452.27;1704790;82;27364;-60
2022/09/10 02:21:08;;;;;;;;;;;;;;;15.36;72.57;100448.80;1739095;81;26252;-60
2022/09/10 02:23:37;;;;;;;;;;;;;;;15.36;72.59;100450.14;1735158;80;25781;-59
2022/09/10 02:26:02;;;;;;;;;;;;;;;15.36;72.64;100447.45;1737573;81;26601;-60
2022/09/10 02:28:29;;;;;;;;;;;;;;;15.39;72.77;100453.52;1736967;81;25752;-60
2022/09/10 02:30:54;;;;;;;;;;;;;;;15.40;72.84;100457.08;1727169;81;28205;-60
2022/09/10 02:33:20;;;;;;;;;;;;;;;15.40;73.04;100455.73;1732929;81;25981;-59
2022/09/10 02:35:47;;;;;;;;;;;;;;;15.41;73.11;100450.70;1740255;81;25662;-61
2022/09/10 02:38:13;;;;;;;;;;;;;;;15.42;72.99;100447.91;1734648;81;26063;-58
2022/09/10 02:40:38;;;;;;;;;;;;;;;15.45;73.34;100451.75;1738016;81;26096;-58
2022/09/10 02:43:04;;;;;;;;;;;;;;;15.48;73.47;100447.98;1736890;81;25791;-59
2022/09/10 02:45:30;;;;;;;;;;;;;;;15.51;73.50;100449.12;1734537;81;26024;-59
2022/09/10 02:47:56;;;;;;;;;;;;;;;15.54;73.50;100451.63;1741144;81;25802;-59
2022/09/10 02:50:23;;;;;;;;;;;;;;;15.54;73.61;100448.92;1740153;81;26487;-59
2022/09/10 02:52:50;;;;;;;;;;;;;;;15.54;73.65;100445.73;1730242;81;25717;-60
2022/09/10 02:55:16;;;;;;;;;;;;;;;15.54;73.58;100445.73;1732811;81;27348;-60
2022/09/10 02:57:43;;;;;;;;;;;;;;;15.52;73.67;100450.86;1738803;81;25850;-58
2022/09/10 03:00:10;;;;;;;;;;;;;;;15.51;73.61;100447.30;1734571;81;25762;-58
2022/09/10 03:02:35;;;;;;;;;;;;;;;15.51;73.90;100445.94;1699097;81;26884;-66
2022/09/10 03:05:03;;;;;;;;;;;;;;;15.55;74.30;100464.16;1706499;82;25822;-65
2022/09/10 03:07:30;;;;;;;;;;;;;;;15.63;74.49;100461.81;1708948;81;27344;-67
2022/09/10 03:09:56;;;;;;;;;;;;;;;15.71;74.57;100462.16;1704074;82;25917;-67
2022/09/10 03:12:21;;;;;;;;;;;;;;;15.75;74.72;100465.05;1711917;82;25886;-66
2022/09/10 03:14:49;;;;;;;;;;;;;;;15.82;74.84;100469.06;1702276;82;25757;-66
2022/09/10 03:17:15;;;;;;;;;;;;;;;15.85;74.89;100472.91;1702467;82;25780;-66
2022/09/10 03:19:40;;;;;;;;;;;;;;;15.88;75.03;100472.70;1707280;82;27354;-67
2022/09/10 03:22:06;;;;;;;;;;;;;;;15.90;75.10;100478.87;1710431;82;25707;-67
2022/09/10 03:24:31;;;;;;;;;;;;;;;15.93;75.24;100483.20;1705239;81;26744;-67
2022/09/10 03:26:57;;;;;;;;;;;;;;;15.92;75.28;100488.22;1692072;82;25721;-66
2022/09/10 03:29:23;;;;;;;;;;;;;;;15.86;75.25;100486.80;1707265;82;25862;-66
2022/09/10 03:31:50;;;;;;;;;;;;;;;15.73;75.72;100483.19;1702482;82;25815;-67
2022/09/10 03:34:17;;;;;;;;;;;;;;;15.73;75.83;100483.68;1694898;82;26112;-67
2022/09/10 03:36:42;;;;;;;;;;;;;;;15.72;76.13;100480.11;1697283;82;25918;-67
2022/09/10 03:39:08;;;;;;;;;;;;;;;15.70;76.21;100482.05;1696727;82;26405;-69
2022/09/10 03:41:33;;;;;;;;;;;;;;;15.69;76.48;100484.85;1701555;82;25886;-68
2022/09/10 03:44:00;;;;;;;;;;;;;;;15.72;77.05;100477.41;1707021;82;27554;-68
2022/09/10 03:46:26;;;;;;;;;;;;;;;15.70;76.83;100471.23;1711375;82;25797;-68
2022/09/10 03:48:51;;;;;;;;;;;;;;;15.63;76.92;100477.16;1696183;82;25866;-69
2022/09/10 03:51:17;;;;;;;;;;;;;;;15.65;77.17;100479.27;1688439;82;25751;-69
2022/09/10 03:53:42;;;;;;;;;;;;;;;15.65;77.34;100477.44;1699882;82;25980;-70
2022/09/10 03:56:09;;;;;;;;;;;;;;;15.69;77.44;100480.31;1699229;82;25869;-68
2022/09/10 03:58:36;;;;;;;;;;;;;;;15.67;78.21;100480.03;1695236;82;25821;-68
2022/09/10 04:01:02;;;;;;;;;;;;;;;15.68;78.14;100483.12;1707844;82;25729;-68
2022/09/10 04:03:28;;;;;;;;;;;;;;;15.55;78.04;100479.02;1700923;82;25954;-68
2022/09/10 04:05:53;;;;;;;;;;;;;;;15.56;78.29;100481.63;1715655;82;26135;-69
2022/09/10 04:08:19;;;;;;;;;;;;;;;15.55;78.28;100474.48;1709257;82;25771;-69
2022/09/10 04:10:45;;;;;;;;;;;;;;;15.57;78.57;100475.28;1710824;82;25805;-68
2022/09/10 04:13:11;;;;;;;;;;;;;;;15.61;78.80;100478.61;1712217;82;26664;-68
2022/09/10 04:15:37;;;;;;;;;;;;;;;15.62;78.94;100478.99;1714237;82;26113;-68
2022/09/10 04:18:04;;;;;;;;;;;;;;;15.62;79.01;100480.34;1686258;82;25829;-68
2022/09/10 04:20:30;;;;;;;;;;;;;;;15.64;79.08;100479.76;1713931;82;26713;-68
2022/09/10 04:22:55;;;;;;;;;;;;;;;15.64;79.29;100485.16;1707915;82;26009;-68
2022/09/10 04:25:21;;;;;;;;;;;;;;;15.64;79.41;100479.76;1719511;82;25745;-68
2022/09/10 04:27:46;;;;;;;;;;;;;;;15.64;79.54;100479.76;1724757;82;25978;-68
2022/09/10 04:30:13;;;;;;;;;;;;;;;15.63;80.45;100475.33;1722255;82;26801;-67
2022/09/10 04:32:38;;;;;;;;;;;;;;;15.62;80.99;100476.29;1721883;82;28408;-68
2022/09/10 04:35:05;;;;;;;;;;;;;;;15.51;81.22;100481.06;1715520;82;25722;-68
2022/09/10 04:37:31;;;;;;;;;;;;;;;15.51;81.60;100475.66;1718416;82;26820;-69
2022/09/10 04:39:57;;;;;;;;;;;;;;;15.49;81.63;100478.08;1710234;82;26031;-68
2022/09/10 04:42:23;;;;;;;;;;;;;;;15.44;81.79;100472.98;1715350;82;25842;-68
2022/09/10 04:44:48;;;;;;;;;;;;;;;15.49;81.86;100474.02;1705024;82;25881;-67
2022/09/10 04:47:15;;;;;;;;;;;;;;;15.51;81.75;100474.79;1699949;82;25779;-67
2022/09/10 04:49:41;;;;;;;;;;;;;;;15.51;81.99;100474.30;1702911;82;25817;-68
2022/09/10 04:52:06;;;;;;;;;;;;;;;15.44;81.76;100472.11;1700797;82;25976;-68
2022/09/10 04:54:36;;;;;;;;;;;;;;;15.42;81.91;100464.11;1714680;82;25762;-67
2022/09/10 04:57:03;;;;;;;;;;;;;;;15.42;81.92;100464.11;1719416;82;28351;-66
2022/09/10 04:59:29;;;;;;;;;;;;;;;15.41;81.99;100466.43;1720631;82;25780;-67
2022/09/10 05:01:55;;;;;;;;;;;;;;;15.39;82.21;100457.56;1705785;82;26007;-67
2022/09/10 05:04:20;;;;;;;;;;;;;;;15.39;82.25;100458.05;1708560;82;26018;-67
2022/09/10 05:06:49;;;;;;;;;;;;;;;15.42;82.44;100459.19;1710011;82;26021;-67
2022/09/10 05:09:13;;;;;;;;;;;;;;;15.40;82.89;100455.73;1655230;85;27758;-67
2022/09/10 05:11:39;;;;;;;;;;;;;;;15.39;84.00;100457.56;1651619;84;26316;-65
2022/09/10 05:14:06;;;;;;;;;;;;;;;15.33;83.73;100457.10;1684863;82;25837;-67
2022/09/10 05:16:31;;;;;;;;;;;;;;;15.28;82.97;100455.19;1656001;85;26144;-66
2022/09/10 05:18:58;;;;;;;;;;;;;;;15.24;83.15;100454.03;1652521;85;26411;-67
2022/09/10 05:21:23;;;;;;;;;;;;;;;15.27;83.30;100452.97;1693940;82;26464;-67
2022/09/10 05:23:49;;;;;;;;;;;;;;;15.24;83.23;100445.94;1705258;82;26865;-67
2022/09/10 05:26:14;;;;;;;;;;;;;;;15.22;83.43;100448.36;1708887;82;26194;-66
2022/09/10 05:28:41;;;;;;;;;;;;;;;15.24;83.65;100447.28;1706460;82;25883;-67
2022/09/10 05:31:08;;;;;;;;;;;;;;;15.23;83.87;100442.85;1706911;82;25941;-67
2022/09/10 05:33:35;;;;;;;;;;;;;;;15.20;83.92;100447.11;1699394;82;26217;-67
2022/09/10 05:36:01;;;;;;;;;;;;;;;15.19;83.95;100436.41;1706179;82;26101;-67
2022/09/10 05:38:27;;;;;;;;;;;;;;;15.16;84.08;100440.66;1709501;82;26598;-68
2022/09/10 05:40:52;;;;;;;;;;;;;;;15.15;84.26;100439.79;1708949;82;26672;-67
2022/09/10 05:43:18;;;;;;;;;;;;;;;15.13;84.23;100442.20;1709593;82;25752;-67
2022/09/10 05:45:43;;;;;;;;;;;;;;;15.14;84.49;100442.11;1709949;82;25633;-67
2022/09/10 05:48:09;;;;;;;;;;;;;;;15.14;84.62;100440.76;1706137;82;25617;-67
2022/09/10 05:50:34;;;;;;;;;;;;;;;15.18;84.78;100440.08;1700151;82;25815;-67
2022/09/10 05:53:00;;;;;;;;;;;;;;;15.20;84.88;100435.44;1705602;82;25822;-68
2022/09/10 05:55:26;;;;;;;;;;;;;;;15.21;84.93;100433.98;1702718;82;25712;-67
2022/09/10 05:57:51;;;;;;;;;;;;;;;15.19;85.06;100426.95;1705498;82;25818;-66
2022/09/10 06:00:18;;;;;;;;;;;;;;;15.23;85.19;100435.23;1706950;82;25839;-66
2022/09/10 06:02:44;;;;;;;;;;;;;;;15.25;85.33;100430.60;1724957;81;25920;-68
2022/09/10 06:05:09;;;;;;;;;;;;;;;15.25;85.42;100432.81;1732751;81;26717;-67
2022/09/10 06:07:35;;;;;;;;;;;;;;;15.28;85.56;100435.80;1736743;81;25864;-67
2022/09/10 06:10:00;;;;;;;;;;;;;;;15.30;85.68;100435.70;1740980;81;26421;-67
2022/09/10 06:12:26;;;;;;;;;;;;;;;15.32;85.84;100440.52;1741697;81;25796;-67
2022/09/10 06:14:52;;;;;;;;;;;;;;;15.36;85.95;100438.00;1736757;81;25896;-68
2022/09/10 06:17:18;;;;;;;;;;;;;;;15.38;86.03;100437.41;1733218;81;25873;-67
2022/09/10 06:19:45;;;;;;;;;;;;;;;15.37;86.02;100439.73;1728394;81;25840;-66
2022/09/10 06:22:12;;;;;;;;;;;;;;;15.36;86.19;100439.34;1731361;81;25852;-67
2022/09/10 06:24:37;;;;;;;;;;;;;;;15.37;86.40;100443.30;1743436;81;25655;-68
2022/09/10 06:27:04;;;;;;;;;;;;;;;15.40;86.46;100436.82;1730804;81;25853;-69
2022/09/10 06:29:29;;;;;;;;;;;;;;;15.42;86.64;100441.16;1732829;81;26031;-68
2022/09/10 06:31:55;;;;;;;;;;;;;;;15.45;86.72;100442.78;1736943;81;25775;-68
2022/09/10 06:34:21;;;;;;;;;;;;;;;15.46;86.83;100451.27;1732503;81;25838;-69
2022/09/10 06:36:48;;;;;;;;;;;;;;;15.46;86.90;100450.78;1734412;81;26621;-68
2022/09/10 06:39:14;;;;;;;;;;;;;;;15.47;87.03;100451.65;1731774;81;26362;-69
2022/09/10 06:41:41;;;;;;;;;;;;;;;15.47;87.09;100459.75;1732900;81;26585;-67
2022/09/10 06:44:07;;;;;;;;;;;;;;;15.44;87.14;100458.13;1731308;81;26837;-68
2022/09/10 06:46:32;;;;;;;;;;;;;;;15.47;87.37;100458.41;1728090;81;26278;-67
2022/09/10 06:49:01;;;;;;;;;;;;;;;15.51;87.49;100463.98;1734374;81;25845;-71
2022/09/10 06:51:25;;;;;;;;;;;;;;;15.53;87.60;100460.21;1733168;81;25834;-70
2022/09/10 06:53:51;;;;;;;;;;;;;;;15.55;87.65;100458.27;1733257;81;25784;-66
2022/09/10 06:56:17;;;;;;;;;;;;;;;15.59;87.86;100461.67;1731800;81;26250;-66
2022/09/10 06:58:43;;;;;;;;;;;;;;;15.55;87.52;100462.33;1734848;81;27419;-67
2022/09/10 07:01:16;;;;;;;;;;;;;;;15.52;87.86;100460.31;1734803;81;25782;-70
2022/09/10 07:03:43;;;;;;;;;;;;;;;15.57;88.07;100462.26;1745798;80;26339;-69
2022/09/10 07:06:12;;;;;;;;;;;;;;;15.63;88.27;100463.65;1736405;80;25999;-66
2022/09/10 07:08:38;;;;;;;;;;;;;;;15.64;88.18;100464.03;1744424;80;26372;-66
2022/09/10 07:11:07;;;;;;;;;;;;;;;15.66;88.34;100464.80;1741179;80;27362;-68
2022/09/10 07:13:33;;;;;;;;;;;;;;;15.71;88.55;100459.46;1743804;80;25768;-69
2022/09/10 07:16:00;;;;;;;;;;;;;;;15.76;88.69;100461.38;1740334;80;25998;-70
2022/09/10 07:18:26;;;;;;;;;;;;;;;15.82;88.81;100459.59;1742220;80;26014;-70
2022/09/10 07:20:51;;;;;;;;;;;;;;;15.85;88.74;100458.04;1737921;81;26676;-68
2022/09/10 07:23:19;;;;;;;;;;;;;;;15.88;88.87;100456.97;1737697;81;26184;-66
2022/09/10 07:25:46;;;;;;;;;;;;;;;15.88;88.89;100453.78;1730246;81;25988;-66
2022/09/10 07:28:14;;;;;;;;;;;;;;;15.89;88.94;100455.51;1734886;81;25734;-69
2022/09/10 07:30:41;;;;;;;;;;;;;;;15.89;89.10;100447.40;1707322;82;25874;-65
2022/09/10 07:33:07;;;;;;;;;;;;;;;15.93;89.24;100449.41;1706172;82;26511;-64
2022/09/10 07:35:35;;;;;;;;;;;;;;;15.95;89.16;100454.71;1717000;82;28191;-66
2022/09/10 07:38:01;;;;;;;;;;;;;;;15.86;89.12;100461.13;1713426;82;25820;-65
2022/09/10 07:40:27;;;;;;;;;;;;;;;15.84;89.34;100454.95;1675565;84;26016;-67
2022/09/10 07:42:55;;;;;;;;;;;;;;;15.85;89.45;100448.58;1716752;82;26725;-66
2022/09/10 07:45:21;;;;;;;;;;;;;;;15.83;89.30;100457.28;1686641;83;25846;-69
2022/09/10 07:47:47;;;;;;;;;;;;;;;15.83;89.57;100456.41;1685065;83;27375;-68
2022/09/10 07:50:13;;;;;;;;;;;;;;;15.85;89.75;100460.75;1682404;83;25843;-67
2022/09/10 07:52:40;;;;;;;;;;;;;;;15.89;89.85;100459.56;1683201;83;25779;-70
2022/09/10 07:55:07;;;;;;;;;;;;;;;15.94;89.97;100455.68;1731137;81;25826;-67
2022/09/10 07:57:39;;;;;;;;;;;;;;;15.96;90.02;100444.28;1744029;81;26186;-66
2022/09/10 08:00:11;;;;;;;;;;;;;;;16.01;90.14;100452.94;1732293;81;27221;-68
2022/09/10 08:02:38;;;;;;;;;;;;;;;16.04;90.29;100455.43;1733617;80;25754;-68
2022/09/10 08:05:05;;;;;;;;;;;;;;;16.11;90.39;100455.39;1711448;82;25760;-68
2022/09/10 08:07:30;;;;;;;;;;;;;;;16.12;90.38;100454.41;1706017;81;26717;-68
2022/09/10 08:09:56;;;;;;;;;;;;;;;16.14;90.42;100457.87;1701192;82;26572;-69
2022/09/10 08:12:24;;;;;;;;;;;;;;;16.11;90.27;100459.44;1701703;82;27360;-68
2022/09/10 08:14:51;;;;;;;;;;;;;;;16.08;90.47;100459.17;1701170;82;26255;-67
2022/09/10 08:17:17;;;;;;;;;;;;;;;16.11;90.64;100458.95;1701294;82;25860;-69
2022/09/10 08:19:43;;;;;;;;;;;;;;;16.11;90.69;100460.80;1701571;82;25987;-69
2022/09/10 08:22:09;;;;;;;;;;;;;;;16.13;90.76;100458.84;1707349;82;25860;-70
2022/09/10 08:24:35;;;;;;;;;;;;;;;16.12;90.67;100455.77;1703588;82;26662;-69
2022/09/10 08:27:00;;;;;;;;;;;;;;;16.11;90.82;100465.72;1694968;82;25861;-68
2022/09/10 08:29:26;;;;;;;;;;;;;;;16.11;90.96;100461.66;1702984;82;25970;-69
2022/09/10 08:31:51;;;;;;;;;;;;;;;16.13;91.12;100462.42;1705611;82;26408;-71
2022/09/10 08:34:17;;;;;;;;;;;;;;;16.14;90.99;100461.94;1703777;82;26219;-69
2022/09/10 08:36:43;;;;;;;;;;;;;;;16.13;91.04;100461.06;1703285;82;26409;-69
2022/09/10 08:39:08;;;;;;;;;;;;;;;16.10;91.03;100468.52;1707421;81;25892;-70
2022/09/10 08:41:46;;;;;;;;;;;;;;;16.08;91.32;100469.12;1701667;82;25782;-70
2022/09/10 08:44:27;;;;;;;;;;;;;;;16.13;91.50;100471.02;1705748;82;25918;-71
2022/09/10 08:46:57;;;;;;;;;;;;;;;16.21;91.71;100474.92;1654232;84;25968;-70
2022/09/10 08:49:43;;;;;;;;;;;;;;;16.28;91.77;100478.06;1667605;82;26575;-71
2022/09/10 08:52:28;;;;;;;;;;;;;;;16.34;91.88;100480.83;1706641;82;25855;-71
2022/09/10 08:55:18;;;;;;;;;;;;;;;16.40;91.93;100485.81;1705046;82;25940;-71
2022/09/10 08:57:56;;;;;;;;;;;;;;;16.35;91.58;100482.08;1705915;82;26497;-71
2022/09/10 09:00:24;;;;;;;;;;;;;;;16.38;92.07;100484.56;1703998;82;25770;-71
2022/09/10 09:02:56;;;;;;;;;;;;;;;16.44;92.15;100482.78;1690840;82;27352;-71
2022/09/10 09:05:24;;;;;;;;;;;;;;;16.43;92.03;100481.54;1697351;82;26069;-71
2022/09/10 09:07:51;;;;;;;;;;;;;;;16.43;92.14;100481.05;1707084;82;25830;-72
2022/09/10 09:10:37;;;;;;;;;;;;;;;16.48;92.29;100485.66;1702491;82;26585;-72
2022/09/10 09:13:34;;;;;;;;;;;;;;;16.49;92.36;100482.46;1702075;82;25790;-73
2022/09/10 09:16:29;;;;;;;;;;;;;;;16.51;92.27;100481.38;1705384;82;27554;-72
2022/09/10 09:19:13;;;;;;;;;;;;;;;16.50;92.43;100485.06;1698749;82;25862;-73
2022/09/10 09:21:53;;;;;;;;;;;;;;;16.52;92.44;100480.41;1704324;82;25799;-74
2022/09/10 09:24:25;;;;;;;;;;;;;;;16.50;92.43;100476.08;1706563;82;26407;-75
2022/09/10 09:26:54;;;;;;;;;;;;;;;16.54;92.70;100472.19;1695586;82;26682;-74
2022/09/10 09:29:30;;;;;;;;;;;;;;;16.55;92.70;100478.84;1704018;82;28164;-74
2022/09/10 09:32:01;;;;;;;;;;;;;;;16.59;92.85;100475.91;1699640;82;25899;-74
2022/09/10 09:34:42;;;;;;;;;;;;;;;16.47;92.14;100479.87;1709267;82;25844;-75
2022/09/10 09:37:14;;;;;;;;;;;;;;;16.44;92.78;100481.44;1702143;82;26383;-76
2022/09/10 09:40:04;;;;;;;;;;;;;;;16.48;92.79;100482.08;1702905;82;25814;-75
2022/09/10 09:42:52;;;;;;;;;;;;;;;16.46;92.90;100482.67;1696378;82;25822;-77
2022/09/10 09:45:37;;;;;;;;;;;;;;;16.44;92.80;100481.92;1699330;82;25831;-75
2022/09/10 09:48:08;;;;;;;;;;;;;;;16.39;92.83;100482.24;1703962;82;26029;-74
2022/09/10 09:50:37;;;;;;;;;;;;;;;16.49;93.38;100479.76;1703518;82;26098;-74
2022/09/10 09:53:03;;;;;;;;;;;;;;;16.56;93.36;100479.22;1703225;82;25769;-75
2022/09/10 09:55:41;;;;;;;;;;;;;;;16.65;93.59;100476.38;1704508;82;27406;-75
2022/09/10 09:58:29;;;;;;;;;;;;;;;16.75;93.62;100476.59;1685974;83;25831;-75
2022/09/10 10:00:56;;;;;;;;;;;;;;;16.79;93.56;100478.09;1679153;83;25796;-75
2022/09/10 10:03:27;;;;;;;;;;;;;;;16.78;93.28;100478.59;1710968;82;25881;-75
2022/09/10 10:06:07;;;;;;;;;;;;;;;16.69;93.14;100475.67;1720393;82;25757;-75
2022/09/10 10:09:00;;;;;;;;;;;;;;;16.69;93.37;100480.59;1725684;82;27360;-75
2022/09/10 10:11:41;;;;;;;;;;;;;;;16.67;93.33;100473.56;1718677;82;25789;-74
2022/09/10 10:14:33;;;;;;;;;;;;;;;16.73;93.40;100479.89;1688794;83;25874;-76
2022/09/10 10:16:59;;;;;;;;;;;;;;;16.74;93.44;100480.27;1716127;82;25771;-75
2022/09/10 10:19:33;;;;;;;;;;;;;;;16.83;93.73;100478.26;1717631;82;26326;-75
2022/09/10 10:22:19;;;;;;;;;;;;;;;16.88;93.75;100474.24;1706885;82;27421;-75
2022/09/10 10:24:46;;;;;;;;;;;;;;;16.91;93.76;100470.45;1716182;82;31481;-74
2022/09/10 10:27:31;;;;;;;;;;;;;;;16.90;93.44;100470.56;1707468;82;32520;-76
2022/09/10 10:30:22;;;;;;;;;;;;;;;16.95;93.85;100471.95;1717656;82;25979;-74
2022/09/10 10:33:01;;;;;;;;;;;;;;;17.00;93.60;100471.63;1713193;82;26390;-74
2022/09/10 10:35:34;;;;;;;;;;;;;;;16.98;93.67;100470.87;1710283;82;26972;-75
2022/09/10 10:38:29;;;;;;;;;;;;;;;16.99;93.64;100471.25;1710568;82;25840;-74
2022/09/10 10:41:15;;;;;;;;;;;;;;;16.99;93.72;100469.41;1656149;85;25451;-74
2022/09/10 10:44:00;;;;;;;;;;;;;;;17.08;94.04;100474.64;1684148;83;25978;-73
2022/09/10 10:46:41;;;;;;;;;;;;;;;17.11;93.87;100475.28;1694416;83;26060;-75
2022/09/10 10:49:19;;;;;;;;;;;;;;;17.09;93.72;100484.00;1653218;85;28206;-74
2022/09/10 10:51:51;;;;;;;;;;;;;;;17.07;93.84;100485.95;1715229;82;25693;-73
2022/09/10 10:54:33;;;;;;;;;;;;;;;17.06;93.80;100482.01;1718857;82;25794;-75
2022/09/10 10:57:20;;;;;;;;;;;;;;;17.07;93.93;100487.80;1715508;82;26801;-74
2022/09/10 10:59:55;;;;;;;;;;;;;;;17.03;93.84;100487.16;1717544;82;25723;-74
2022/09/10 11:02:47;;;;;;;;;;;;;;;17.01;93.82;100483.70;1715969;82;27509;-73
2022/09/10 11:05:40;;;;;;;;;;;;;;;16.97;93.87;100486.25;1738195;80;25781;-73
2022/09/10 11:08:26;;;;;;;;;;;;;;;16.95;93.86;100484.63;1753385;80;26270;-72
2022/09/10 11:11:05;;;;;;;;;;;;;;;16.86;93.69;100486.16;1738694;80;26749;-73
2022/09/10 11:13:34;;;;;;;;;;;;;;;16.86;93.99;100482.96;1746977;80;25752;-73
2022/09/10 11:16:06;;;;;;;;;;;;;;;16.86;93.90;100483.45;1745034;80;26151;-73
2022/09/10 11:18:41;;;;;;;;;;;;;;;16.86;94.06;100482.09;1707856;82;25889;-73
2022/09/10 11:21:17;;;;;;;;;;;;;;;16.86;94.17;100480.74;1708377;81;25837;-73
2022/09/10 11:23:55;;;;;;;;;;;;;;;16.84;93.77;100479.98;1714069;82;25857;-73
2022/09/10 11:26:30;;;;;;;;;;;;;;;16.79;94.00;100470.84;1708424;82;25339;-72
2022/09/10 11:29:06;;;;;;;;;;;;;;;16.88;94.46;100467.47;1688776;82;27019;-73
2022/09/10 11:31:34;;;;;;;;;;;;;;;16.95;94.49;100463.83;1687987;83;25858;-73
2022/09/10 11:34:13;;;;;;;;;;;;;;;17.06;94.72;100465.27;1685429;83;26489;-73
2022/09/10 11:36:48;;;;;;;;;;;;;;;17.10;94.49;100460.01;1697875;83;25758;-73
2022/09/10 11:39:23;;;;;;;;;;;;;;;17.12;94.73;100448.58;1691893;83;25749;-73
2022/09/10 11:41:51;;;;;;;;;;;;;;;17.17;94.55;100443.69;1693612;83;27372;-72
2022/09/10 11:44:53;;;;;;;;;;;;;;;17.19;94.55;100440.37;1699143;83;25822;-72
2022/09/10 11:47:29;;;;;;;;;;;;;;;17.30;94.92;100441.42;1707983;82;25775;-72
2022/09/10 11:50:09;;;;;;;;;;;;;;;17.39;94.89;100443.44;1683768;83;26818;-72
2022/09/10 11:52:34;;;;;;;;;;;;;;;17.45;94.87;100440.27;1704068;82;25850;-72
2022/09/10 11:55:02;;;;;;;;;;;;;;;17.49;94.93;100436.35;1713504;82;25834;-72
2022/09/10 11:57:37;;;;;;;;;;;;;;;17.54;94.92;100436.87;1717260;82;25884;-72
2022/09/10 12:00:10;;;;;;;;;;;;;;;17.45;94.72;100432.14;1684033;83;25898;-72
2022/09/10 12:03:02;;;;;;;;;;;;;;;17.49;94.91;100433.64;1716131;82;26775;-72
2022/09/10 12:05:55;;;;;;;;;;;;;;;17.55;95.05;100433.67;1729572;80;25937;-71
2022/09/10 12:08:33;;;;;;;;;;;;;;;17.58;95.16;100422.59;1712905;81;27357;-72
2022/09/10 12:11:06;;;;;;;;;;;;;;;17.65;95.18;100423.37;1715814;81;25774;-71
2022/09/10 12:13:38;;;;;;;;;;;;;;;17.64;94.92;100417.58;1718027;81;26508;-71
2022/09/10 12:16:12;;;;;;;;;;;;;;;17.65;95.27;100411.66;1724115;81;25762;-71
2022/09/10 12:18:43;;;;;;;;;;;;;;;17.66;95.03;100412.94;1722842;81;25862;-71
2022/09/10 12:21:22;;;;;;;;;;;;;;;17.72;95.40;100415.17;1722131;80;28219;-71
2022/09/10 12:23:48;;;;;;;;;;;;;;;17.78;95.48;100414.70;1715559;81;25884;-71
2022/09/10 12:26:19;;;;;;;;;;;;;;;17.77;95.29;100414.33;1669536;84;26089;-71
2022/09/10 12:28:48;;;;;;;;;;;;;;;17.80;95.42;100412.74;1690319;83;26018;-71
2022/09/10 12:31:16;;;;;;;;;;;;;;;17.85;95.47;100409.67;1698384;83;25820;-71
2022/09/10 12:33:45;;;;;;;;;;;;;;;17.81;95.24;100403.63;1709491;81;27336;-70
2022/09/10 12:36:29;;;;;;;;;;;;;;;17.83;95.36;100406.22;1711683;81;25863;-70
2022/09/10 12:39:18;;;;;;;;;;;;;;;17.78;95.10;100405.70;1708260;82;25799;-71
2022/09/10 12:41:51;;;;;;;;;;;;;;;17.79;95.35;100402.87;1712055;82;26748;-71
2022/09/10 12:44:36;;;;;;;;;;;;;;;17.82;95.49;100405.35;1710499;82;25786;-71
2022/09/10 12:47:17;;;;;;;;;;;;;;;17.79;95.20;100396.59;1726507;81;25949;-70
2022/09/10 12:49:56;;;;;;;;;;;;;;;17.86;95.70;100395.14;1707908;81;25751;-71
2022/09/10 12:52:51;;;;;;;;;;;;;;;18.08;96.75;100397.91;1713206;82;25903;-71
2022/09/10 12:55:49;;;;;;;;;;;;;;;18.53;97.52;100398.41;1708263;81;25993;-72